sensor_id;sensor_type;location;lat;lon;timestamp;pressure;altitude;pressure_sealevel;temperature;humidity
78409;BME280;67697;50.750;-3.270;2024-02-21T00:02:15;101275.48;;;7.62;100.00
78409;BME280;67697;50.750;-3.270;2024-02-21T00:04:43;101277.45;;;7.77;100.00
78409;BME280;67697;50.750;-3.270;2024-02-21T00:07:07;101276.46;;;7.73;100.00
78409;BME280;67697;50.750;-3.270;2024-02-21T00:09:32;101268.45;;;7.69;100.00
78409;BME280;67697;50.750;-3.270;2024-02-21T00:11:57;101259.45;;;7.91;100.00
78409;BME280;67697;50.750;-3.270;2024-02-21T00:14:23;101256.81;;;7.78;100.00
78409;BME280;67697;50.750;-3.270;2024-02-21T00:16:48;101250.81;;;7.71;100.00
78409;BME280;67697;50.750;-3.270;2024-02-21T00:19:13;101246.95;;;7.49;100.00
78409;BME280;67697;50.750;-3.270;2024-02-21T00:21:39;101246.83;;;7.53;100.00
78409;BME280;67697;50.750;-3.270;2024-02-21T00:24:05;101243.88;;;7.66;100.00
78409;BME280;67697;50.750;-3.270;2024-02-21T00:26:30;101239.29;;;7.62;100.00
78409;BME280;67697;50.750;-3.270;2024-02-21T00:28:55;101234.79;;;8.01;100.00
78409;BME280;67697;50.750;-3.270;2024-02-21T00:31:20;101225.12;;;7.88;100.00
78409;BME280;67697;50.750;-3.270;2024-02-21T00:33:46;101218.83;;;7.61;100.00
78409;BME280;67697;50.750;-3.270;2024-02-21T00:36:12;101212.96;;;7.70;100.00
78409;BME280;67697;50.750;-3.270;2024-02-21T00:38:38;101207.67;;;7.77;100.00
78409;BME280;67697;50.750;-3.270;2024-02-21T00:41:03;101201.88;;;7.79;100.00
78409;BME280;67697;50.750;-3.270;2024-02-21T00:43:29;101193.34;;;7.75;100.00
78409;BME280;67697;50.750;-3.270;2024-02-21T00:45:55;101186.97;;;7.45;100.00
78409;BME280;67697;50.750;-3.270;2024-02-21T00:48:20;101179.12;;;7.75;100.00
78409;BME280;67697;50.750;-3.270;2024-02-21T00:50:46;101171.59;;;7.43;100.00
78409;BME280;67697;50.750;-3.270;2024-02-21T00:53:11;101163.50;;;7.19;100.00
78409;BME280;67697;50.750;-3.270;2024-02-21T00:55:37;101161.92;;;7.50;100.00
78409;BME280;67697;50.750;-3.270;2024-02-21T00:58:03;101159.69;;;7.31;100.00
78409;BME280;67697;50.750;-3.270;2024-02-21T01:00:28;101148.92;;;7.68;100.00
78409;BME280;67697;50.750;-3.270;2024-02-21T01:02:54;101149.70;;;7.46;100.00
78409;BME280;67697;50.750;-3.270;2024-02-21T01:05:20;101143.11;;;7.37;100.00
78409;BME280;67697;50.750;-3.270;2024-02-21T01:07:45;101136.89;;;7.30;100.00
78409;BME280;67697;50.750;-3.270;2024-02-21T01:10:11;101123.93;;;7.25;100.00
78409;BME280;67697;50.750;-3.270;2024-02-21T01:12:42;101127.92;;;7.02;100.00
78409;BME280;67697;50.750;-3.270;2024-02-21T01:15:02;101125.62;;;7.13;100.00
78409;BME280;67697;50.750;-3.270;2024-02-21T01:17:27;101127.12;;;7.15;100.00
78409;BME280;67697;50.750;-3.270;2024-02-21T01:19:53;101125.68;;;7.25;100.00
78409;BME280;67697;50.750;-3.270;2024-02-21T01:22:18;101123.20;;;7.14;100.00
78409;BME280;67697;50.750;-3.270;2024-02-21T01:24:44;101117.36;;;6.92;100.00
78409;BME280;67697;50.750;-3.270;2024-02-21T01:27:09;101106.91;;;7.04;100.00
78409;BME280;67697;50.750;-3.270;2024-02-21T01:29:35;101105.54;;;7.11;100.00
78409;BME280;67697;50.750;-3.270;2024-02-21T01:32:00;101107.81;;;6.74;100.00
78409;BME280;67697;50.750;-3.270;2024-02-21T01:34:26;101105.43;;;6.99;100.00
78409;BME280;67697;50.750;-3.270;2024-02-21T01:36:51;101104.19;;;7.15;100.00
78409;BME280;67697;50.750;-3.270;2024-02-21T01:39:17;101102.81;;;7.02;100.00
78409;BME280;67697;50.750;-3.270;2024-02-21T01:41:43;101101.21;;;7.37;100.00
78409;BME280;67697;50.750;-3.270;2024-02-21T01:44:08;101085.52;;;6.82;100.00
78409;BME280;67697;50.750;-3.270;2024-02-21T01:46:34;101080.01;;;7.65;100.00
78409;BME280;67697;50.750;-3.270;2024-02-21T01:48:59;101074.75;;;7.60;100.00
78409;BME280;67697;50.750;-3.270;2024-02-21T01:51:25;101073.72;;;7.24;100.00
78409;BME280;67697;50.750;-3.270;2024-02-21T01:53:51;101068.71;;;7.08;100.00
78409;BME280;67697;50.750;-3.270;2024-02-21T01:56:16;101063.17;;;7.41;100.00
78409;BME280;67697;50.750;-3.270;2024-02-21T01:58:42;101056.83;;;7.22;100.00
78409;BME280;67697;50.750;-3.270;2024-02-21T02:01:07;101058.50;;;7.03;100.00
78409;BME280;67697;50.750;-3.270;2024-02-21T02:03:32;101051.77;;;7.30;100.00
78409;BME280;67697;50.750;-3.270;2024-02-21T02:05:58;101048.40;;;7.36;100.00
78409;BME280;67697;50.750;-3.270;2024-02-21T02:08:24;101040.92;;;7.18;100.00
78409;BME280;67697;50.750;-3.270;2024-02-21T02:13:15;101034.85;;;6.89;100.00
78409;BME280;67697;50.750;-3.270;2024-02-21T02:15:41;101030.34;;;7.09;100.00
78409;BME280;67697;50.750;-3.270;2024-02-21T02:18:07;101023.89;;;7.42;100.00
78409;BME280;67697;50.750;-3.270;2024-02-21T02:20:33;101019.11;;;7.54;100.00
78409;BME280;67697;50.750;-3.270;2024-02-21T02:22:57;101012.83;;;7.51;100.00
78409;BME280;67697;50.750;-3.270;2024-02-21T02:25:23;101010.85;;;7.22;100.00
78409;BME280;67697;50.750;-3.270;2024-02-21T02:27:48;101002.49;;;7.93;100.00
78409;BME280;67697;50.750;-3.270;2024-02-21T02:30:14;100998.05;;;7.44;100.00
78409;BME280;67697;50.750;-3.270;2024-02-21T02:32:42;100991.63;;;7.40;100.00
78409;BME280;67697;50.750;-3.270;2024-02-21T02:35:06;100982.50;;;7.58;100.00
78409;BME280;67697;50.750;-3.270;2024-02-21T02:37:31;100975.74;;;7.30;100.00
78409;BME280;67697;50.750;-3.270;2024-02-21T02:39:57;100968.36;;;7.51;100.00
78409;BME280;67697;50.750;-3.270;2024-02-21T02:42:22;100963.87;;;7.52;100.00
78409;BME280;67697;50.750;-3.270;2024-02-21T02:44:48;100958.54;;;7.40;100.00
78409;BME280;67697;50.750;-3.270;2024-02-21T02:47:13;100959.30;;;7.41;100.00
78409;BME280;67697;50.750;-3.270;2024-02-21T02:49:39;100952.06;;;7.26;100.00
78409;BME280;67697;50.750;-3.270;2024-02-21T02:52:07;100944.51;;;7.80;100.00
78409;BME280;67697;50.750;-3.270;2024-02-21T02:54:30;100935.34;;;7.53;100.00
78409;BME280;67697;50.750;-3.270;2024-02-21T02:56:56;100924.02;;;7.47;100.00
78409;BME280;67697;50.750;-3.270;2024-02-21T02:59:21;100915.38;;;7.51;100.00
78409;BME280;67697;50.750;-3.270;2024-02-21T03:01:47;100909.67;;;7.17;100.00
78409;BME280;67697;50.750;-3.270;2024-02-21T03:04:12;100903.88;;;7.40;100.00
78409;BME280;67697;50.750;-3.270;2024-02-21T03:06:38;100897.30;;;7.41;100.00
78409;BME280;67697;50.750;-3.270;2024-02-21T03:09:04;100889.82;;;7.32;100.00
78409;BME280;67697;50.750;-3.270;2024-02-21T03:11:35;100875.40;;;7.50;100.00
78409;BME280;67697;50.750;-3.270;2024-02-21T03:13:55;100873.89;;;7.53;100.00
78409;BME280;67697;50.750;-3.270;2024-02-21T03:16:21;100868.19;;;7.27;100.00
78409;BME280;67697;50.750;-3.270;2024-02-21T03:18:46;100865.01;;;7.23;100.00
78409;BME280;67697;50.750;-3.270;2024-02-21T03:21:12;100858.36;;;7.39;100.00
78409;BME280;67697;50.750;-3.270;2024-02-21T03:23:38;100849.73;;;7.21;100.00
78409;BME280;67697;50.750;-3.270;2024-02-21T03:26:03;100844.16;;;7.37;100.00
78409;BME280;67697;50.750;-3.270;2024-02-21T03:28:29;100836.98;;;7.10;100.00
78409;BME280;67697;50.750;-3.270;2024-02-21T03:30:54;100824.96;;;7.36;100.00
78409;BME280;67697;50.750;-3.270;2024-02-21T03:33:20;100812.11;;;7.27;100.00
78409;BME280;67697;50.750;-3.270;2024-02-21T03:35:45;100807.86;;;7.22;100.00
78409;BME280;67697;50.750;-3.270;2024-02-21T03:38:11;100805.83;;;7.11;100.00
78409;BME280;67697;50.750;-3.270;2024-02-21T03:40:37;100797.12;;;7.60;100.00
78409;BME280;67697;50.750;-3.270;2024-02-21T03:43:02;100787.24;;;7.37;100.00
78409;BME280;67697;50.750;-3.270;2024-02-21T03:45:28;100771.51;;;7.39;100.00
78409;BME280;67697;50.750;-3.270;2024-02-21T03:47:53;100760.37;;;7.14;100.00
78409;BME280;67697;50.750;-3.270;2024-02-21T03:50:19;100757.39;;;7.09;100.00
78409;BME280;67697;50.750;-3.270;2024-02-21T03:52:45;100758.92;;;7.16;100.00
78409;BME280;67697;50.750;-3.270;2024-02-21T03:55:10;100756.80;;;7.50;100.00
78409;BME280;67697;50.750;-3.270;2024-02-21T03:57:36;100743.55;;;7.31;100.00
78409;BME280;67697;50.750;-3.270;2024-02-21T04:00:02;100742.62;;;7.25;100.00
78409;BME280;67697;50.750;-3.270;2024-02-21T04:02:27;100746.86;;;6.78;100.00
78409;BME280;67697;50.750;-3.270;2024-02-21T04:04:52;100740.32;;;6.93;100.00
78409;BME280;67697;50.750;-3.270;2024-02-21T04:07:18;100739.40;;;7.10;100.00
78409;BME280;67697;50.750;-3.270;2024-02-21T04:09:43;100731.63;;;7.13;100.00
78409;BME280;67697;50.750;-3.270;2024-02-21T04:12:09;100726.91;;;6.53;100.00
78409;BME280;67697;50.750;-3.270;2024-02-21T04:14:35;100725.92;;;6.85;100.00
78409;BME280;67697;50.750;-3.270;2024-02-21T04:17:01;100713.71;;;6.95;100.00
78409;BME280;67697;50.750;-3.270;2024-02-21T04:19:26;100694.54;;;6.43;100.00
78409;BME280;67697;50.750;-3.270;2024-02-21T04:21:52;100677.68;;;7.04;100.00
78409;BME280;67697;50.750;-3.270;2024-02-21T04:24:18;100680.18;;;6.19;100.00
78409;BME280;67697;50.750;-3.270;2024-02-21T04:26:43;100675.33;;;6.90;100.00
78409;BME280;67697;50.750;-3.270;2024-02-21T04:29:09;100660.67;;;6.52;100.00
78409;BME280;67697;50.750;-3.270;2024-02-21T04:31:34;100654.90;;;6.43;100.00
78409;BME280;67697;50.750;-3.270;2024-02-21T04:34:00;100635.85;;;6.70;100.00
78409;BME280;67697;50.750;-3.270;2024-02-21T04:36:26;100631.19;;;6.47;100.00
78409;BME280;67697;50.750;-3.270;2024-02-21T04:38:51;100620.93;;;6.66;100.00
78409;BME280;67697;50.750;-3.270;2024-02-21T04:41:17;100616.90;;;6.24;100.00
78409;BME280;67697;50.750;-3.270;2024-02-21T04:43:43;100617.83;;;6.05;100.00
78409;BME280;67697;50.750;-3.270;2024-02-21T04:46:08;100614.94;;;6.22;100.00
78409;BME280;67697;50.750;-3.270;2024-02-21T04:48:34;100600.76;;;6.22;100.00
78409;BME280;67697;50.750;-3.270;2024-02-21T04:51:00;100591.86;;;6.59;100.00
78409;BME280;67697;50.750;-3.270;2024-02-21T04:53:27;100585.70;;;6.73;100.00
78409;BME280;67697;50.750;-3.270;2024-02-21T04:55:51;100576.27;;;6.68;100.00
78409;BME280;67697;50.750;-3.270;2024-02-21T04:58:17;100574.64;;;6.54;100.00
78409;BME280;67697;50.750;-3.270;2024-02-21T05:00:43;100564.07;;;6.59;100.00
78409;BME280;67697;50.750;-3.270;2024-02-21T05:03:08;100557.69;;;6.46;100.00
78409;BME280;67697;50.750;-3.270;2024-02-21T05:05:33;100553.64;;;6.80;100.00
78409;BME280;67697;50.750;-3.270;2024-02-21T05:07:59;100544.07;;;6.68;100.00
78409;BME280;67697;50.750;-3.270;2024-02-21T05:10:25;100540.68;;;6.85;100.00
78409;BME280;67697;50.750;-3.270;2024-02-21T05:12:50;100529.09;;;7.23;100.00
78409;BME280;67697;50.750;-3.270;2024-02-21T05:15:16;100522.06;;;6.94;100.00
78409;BME280;67697;50.750;-3.270;2024-02-21T05:17:41;100512.39;;;6.75;100.00
78409;BME280;67697;50.750;-3.270;2024-02-21T05:20:08;100512.40;;;7.19;100.00
78409;BME280;67697;50.750;-3.270;2024-02-21T05:22:33;100499.74;;;6.85;100.00
78409;BME280;67697;50.750;-3.270;2024-02-21T05:24:58;100500.36;;;6.99;100.00
78409;BME280;67697;50.750;-3.270;2024-02-21T05:27:23;100499.33;;;6.78;100.00
78409;BME280;67697;50.750;-3.270;2024-02-21T05:29:49;100496.60;;;6.96;100.00
78409;BME280;67697;50.750;-3.270;2024-02-21T05:32:15;100495.06;;;7.13;100.00
78409;BME280;67697;50.750;-3.270;2024-02-21T05:34:40;100492.17;;;6.90;100.00
78409;BME280;67697;50.750;-3.270;2024-02-21T05:37:07;100485.69;;;6.95;100.00
78409;BME280;67697;50.750;-3.270;2024-02-21T05:39:32;100482.38;;;6.94;100.00
78409;BME280;67697;50.750;-3.270;2024-02-21T05:41:57;100474.63;;;7.12;100.00
78409;BME280;67697;50.750;-3.270;2024-02-21T05:44:23;100458.15;;;7.02;100.00
78409;BME280;67697;50.750;-3.270;2024-02-21T05:46:49;100460.63;;;7.03;100.00
78409;BME280;67697;50.750;-3.270;2024-02-21T05:49:14;100461.21;;;7.13;100.00
78409;BME280;67697;50.750;-3.270;2024-02-21T05:51:40;100453.58;;;6.95;100.00
78409;BME280;67697;50.750;-3.270;2024-02-21T05:54:06;100443.61;;;6.83;100.00
78409;BME280;67697;50.750;-3.270;2024-02-21T05:56:31;100430.13;;;6.96;100.00
78409;BME280;67697;50.750;-3.270;2024-02-21T05:58:57;100429.30;;;7.07;100.00
78409;BME280;67697;50.750;-3.270;2024-02-21T06:01:22;100423.66;;;7.52;100.00
78409;BME280;67697;50.750;-3.270;2024-02-21T06:03:48;100412.71;;;7.30;100.00
78409;BME280;67697;50.750;-3.270;2024-02-21T06:06:14;100406.34;;;7.31;100.00
78409;BME280;67697;50.750;-3.270;2024-02-21T06:08:39;100402.03;;;7.47;100.00
78409;BME280;67697;50.750;-3.270;2024-02-21T06:11:05;100389.89;;;7.09;100.00
78409;BME280;67697;50.750;-3.270;2024-02-21T06:13:31;100390.66;;;7.19;100.00
78409;BME280;67697;50.750;-3.270;2024-02-21T06:15:56;100400.18;;;7.24;100.00
78409;BME280;67697;50.750;-3.270;2024-02-21T06:18:22;100385.14;;;7.16;100.00
78409;BME280;67697;50.750;-3.270;2024-02-21T06:20:48;100384.23;;;7.13;100.00
78409;BME280;67697;50.750;-3.270;2024-02-21T06:23:14;100386.88;;;7.04;100.00
78409;BME280;67697;50.750;-3.270;2024-02-21T06:25:38;100376.99;;;7.10;100.00
78409;BME280;67697;50.750;-3.270;2024-02-21T06:28:06;100375.91;;;7.35;100.00
78409;BME280;67697;50.750;-3.270;2024-02-21T06:30:30;100361.55;;;6.92;100.00
78409;BME280;67697;50.750;-3.270;2024-02-21T06:32:55;100356.46;;;6.87;100.00
78409;BME280;67697;50.750;-3.270;2024-02-21T06:35:21;100346.46;;;7.22;100.00
78409;BME280;67697;50.750;-3.270;2024-02-21T06:37:47;100343.86;;;7.26;100.00
78409;BME280;67697;50.750;-3.270;2024-02-21T06:40:14;100334.84;;;7.26;100.00
78409;BME280;67697;50.750;-3.270;2024-02-21T06:42:38;100331.52;;;7.08;100.00
78409;BME280;67697;50.750;-3.270;2024-02-21T06:45:05;100330.86;;;7.18;100.00
78409;BME280;67697;50.750;-3.270;2024-02-21T06:47:30;100332.89;;;7.00;100.00
78409;BME280;67697;50.750;-3.270;2024-02-21T06:49:55;100323.28;;;7.09;100.00
78409;BME280;67697;50.750;-3.270;2024-02-21T06:52:22;100319.30;;;6.87;100.00
78409;BME280;67697;50.750;-3.270;2024-02-21T06:54:46;100316.56;;;6.92;100.00
78409;BME280;67697;50.750;-3.270;2024-02-21T06:57:12;100308.78;;;6.71;100.00
78409;BME280;67697;50.750;-3.270;2024-02-21T06:59:37;100300.27;;;7.01;100.00
78409;BME280;67697;50.750;-3.270;2024-02-21T07:02:03;100287.08;;;6.77;100.00
78409;BME280;67697;50.750;-3.270;2024-02-21T07:04:29;100283.08;;;6.87;100.00
78409;BME280;67697;50.750;-3.270;2024-02-21T07:06:54;100279.09;;;6.97;100.00
78409;BME280;67697;50.750;-3.270;2024-02-21T07:09:20;100266.35;;;7.01;100.00
78409;BME280;67697;50.750;-3.270;2024-02-21T07:11:46;100268.72;;;6.87;100.00
78409;BME280;67697;50.750;-3.270;2024-02-21T07:14:11;100262.09;;;6.86;100.00
78409;BME280;67697;50.750;-3.270;2024-02-21T07:16:37;100251.48;;;7.01;100.00
78409;BME280;67697;50.750;-3.270;2024-02-21T07:19:04;100237.62;;;7.00;100.00
78409;BME280;67697;50.750;-3.270;2024-02-21T07:21:28;100237.75;;;6.81;100.00
78409;BME280;67697;50.750;-3.270;2024-02-21T07:23:54;100232.04;;;6.80;100.00
78409;BME280;67697;50.750;-3.270;2024-02-21T07:26:19;100226.53;;;6.80;100.00
78409;BME280;67697;50.750;-3.270;2024-02-21T07:28:46;100217.45;;;6.91;100.00
78409;BME280;67697;50.750;-3.270;2024-02-21T07:31:10;100213.74;;;6.99;100.00
78409;BME280;67697;50.750;-3.270;2024-02-21T07:33:36;100199.43;;;6.94;100.00
78409;BME280;67697;50.750;-3.270;2024-02-21T07:36:05;100192.24;;;6.91;100.00
78409;BME280;67697;50.750;-3.270;2024-02-21T07:38:27;100193.69;;;7.31;100.00
78409;BME280;67697;50.750;-3.270;2024-02-21T07:40:52;100188.40;;;7.05;100.00
78409;BME280;67697;50.750;-3.270;2024-02-21T07:43:18;100179.47;;;7.09;100.00
78409;BME280;67697;50.750;-3.270;2024-02-21T07:45:44;100182.90;;;7.03;100.00
78409;BME280;67697;50.750;-3.270;2024-02-21T07:48:09;100169.28;;;6.81;100.00
78409;BME280;67697;50.750;-3.270;2024-02-21T07:50:35;100164.06;;;7.19;100.00
78409;BME280;67697;50.750;-3.270;2024-02-21T07:53:01;100151.73;;;7.05;100.00
78409;BME280;67697;50.750;-3.270;2024-02-21T07:55:26;100141.16;;;7.18;100.00
78409;BME280;67697;50.750;-3.270;2024-02-21T07:57:52;100133.54;;;7.21;100.00
78409;BME280;67697;50.750;-3.270;2024-02-21T08:00:19;100130.54;;;7.36;100.00
78409;BME280;67697;50.750;-3.270;2024-02-21T08:02:43;100142.97;;;7.06;100.00
78409;BME280;67697;50.750;-3.270;2024-02-21T08:05:09;100140.47;;;6.84;100.00
78409;BME280;67697;50.750;-3.270;2024-02-21T08:07:35;100142.80;;;6.92;100.00
78409;BME280;67697;50.750;-3.270;2024-02-21T08:10:00;100138.00;;;7.09;100.00
78409;BME280;67697;50.750;-3.270;2024-02-21T08:12:26;100123.55;;;7.03;100.00
78409;BME280;67697;50.750;-3.270;2024-02-21T08:14:51;100119.22;;;6.96;100.00
78409;BME280;67697;50.750;-3.270;2024-02-21T08:17:17;100118.03;;;7.04;100.00
78409;BME280;67697;50.750;-3.270;2024-02-21T08:19:43;100111.48;;;6.93;100.00
78409;BME280;67697;50.750;-3.270;2024-02-21T08:22:08;100106.47;;;7.02;100.00
78409;BME280;67697;50.750;-3.270;2024-02-21T08:24:34;100104.32;;;7.19;100.00
78409;BME280;67697;50.750;-3.270;2024-02-21T08:27:00;100099.49;;;6.92;100.00
78409;BME280;67697;50.750;-3.270;2024-02-21T08:29:25;100093.14;;;6.85;100.00
78409;BME280;67697;50.750;-3.270;2024-02-21T08:31:51;100081.66;;;6.76;100.00
78409;BME280;67697;50.750;-3.270;2024-02-21T08:34:17;100075.03;;;7.01;100.00
78409;BME280;67697;50.750;-3.270;2024-02-21T08:36:43;100076.98;;;7.03;100.00
78409;BME280;67697;50.750;-3.270;2024-02-21T08:39:08;100077.20;;;6.77;100.00
78409;BME280;67697;50.750;-3.270;2024-02-21T08:41:34;100073.40;;;6.97;100.00
78409;BME280;67697;50.750;-3.270;2024-02-21T08:44:00;100068.67;;;6.90;100.00
78409;BME280;67697;50.750;-3.270;2024-02-21T08:46:25;100047.04;;;6.68;100.00
78409;BME280;67697;50.750;-3.270;2024-02-21T08:48:51;100046.29;;;6.76;100.00
78409;BME280;67697;50.750;-3.270;2024-02-21T08:51:16;100037.76;;;6.73;100.00
78409;BME280;67697;50.750;-3.270;2024-02-21T08:53:42;100031.34;;;6.69;100.00
78409;BME280;67697;50.750;-3.270;2024-02-21T08:56:08;100027.19;;;6.97;100.00
78409;BME280;67697;50.750;-3.270;2024-02-21T08:58:34;100008.17;;;6.84;100.00
78409;BME280;67697;50.750;-3.270;2024-02-21T09:00:59;100001.21;;;6.99;100.00
78409;BME280;67697;50.750;-3.270;2024-02-21T09:03:24;99998.74;;;6.87;100.00
78409;BME280;67697;50.750;-3.270;2024-02-21T09:05:50;99991.88;;;6.84;100.00
78409;BME280;67697;50.750;-3.270;2024-02-21T09:08:16;99982.60;;;7.03;100.00
78409;BME280;67697;50.750;-3.270;2024-02-21T09:10:41;99979.10;;;6.86;100.00
78409;BME280;67697;50.750;-3.270;2024-02-21T09:13:08;99964.63;;;6.86;100.00
78409;BME280;67697;50.750;-3.270;2024-02-21T09:15:32;99947.87;;;6.86;100.00
78409;BME280;67697;50.750;-3.270;2024-02-21T09:17:58;99949.13;;;7.15;100.00
78409;BME280;67697;50.750;-3.270;2024-02-21T09:20:24;99941.89;;;6.83;100.00
78409;BME280;67697;50.750;-3.270;2024-02-21T09:22:49;99934.30;;;6.80;100.00
78409;BME280;67697;50.750;-3.270;2024-02-21T09:25:15;99938.87;;;7.08;100.00
78409;BME280;67697;50.750;-3.270;2024-02-21T09:27:41;99928.38;;;6.94;100.00
78409;BME280;67697;50.750;-3.270;2024-02-21T09:30:08;99922.14;;;7.31;100.00
78409;BME280;67697;50.750;-3.270;2024-02-21T09:32:32;99916.15;;;6.90;100.00
78409;BME280;67697;50.750;-3.270;2024-02-21T09:34:58;99918.37;;;7.20;100.00
78409;BME280;67697;50.750;-3.270;2024-02-21T09:37:23;99921.65;;;6.92;100.00
78409;BME280;67697;50.750;-3.270;2024-02-21T09:39:49;99904.67;;;7.10;100.00
78409;BME280;67697;50.750;-3.270;2024-02-21T09:42:17;99905.08;;;7.15;100.00
78409;BME280;67697;50.750;-3.270;2024-02-21T09:44:40;99908.12;;;6.95;100.00
78409;BME280;67697;50.750;-3.270;2024-02-21T09:47:10;99896.28;;;6.77;100.00
78409;BME280;67697;50.750;-3.270;2024-02-21T09:49:32;99886.61;;;7.01;100.00
78409;BME280;67697;50.750;-3.270;2024-02-21T09:51:57;99887.56;;;6.83;100.00
78409;BME280;67697;50.750;-3.270;2024-02-21T09:54:23;99889.10;;;7.07;100.00
78409;BME280;67697;50.750;-3.270;2024-02-21T09:56:49;99883.48;;;7.06;100.00
78409;BME280;67697;50.750;-3.270;2024-02-21T09:59:14;99877.22;;;6.91;100.00
78409;BME280;67697;50.750;-3.270;2024-02-21T10:01:39;99869.71;;;7.01;100.00
78409;BME280;67697;50.750;-3.270;2024-02-21T10:04:05;99858.58;;;7.14;100.00
78409;BME280;67697;50.750;-3.270;2024-02-21T10:06:31;99860.13;;;7.21;100.00
78409;BME280;67697;50.750;-3.270;2024-02-21T10:08:56;99847.94;;;7.31;100.00
78409;BME280;67697;50.750;-3.270;2024-02-21T10:11:23;99847.26;;;7.27;100.00
78409;BME280;67697;50.750;-3.270;2024-02-21T10:13:48;99841.10;;;7.46;100.00
78409;BME280;67697;50.750;-3.270;2024-02-21T10:16:13;99831.73;;;7.05;100.00
78409;BME280;67697;50.750;-3.270;2024-02-21T10:18:39;99824.48;;;7.54;100.00
78409;BME280;67697;50.750;-3.270;2024-02-21T10:21:07;99826.55;;;7.57;100.00
78409;BME280;67697;50.750;-3.270;2024-02-21T10:23:41;99824.50;;;7.49;100.00
78409;BME280;67697;50.750;-3.270;2024-02-21T10:26:05;99818.20;;;7.44;100.00
78409;BME280;67697;50.750;-3.270;2024-02-21T10:28:23;99813.17;;;7.42;100.00
78409;BME280;67697;50.750;-3.270;2024-02-21T10:30:50;99810.12;;;7.45;100.00
78409;BME280;67697;50.750;-3.270;2024-02-21T10:33:15;99800.02;;;7.41;100.00
78409;BME280;67697;50.750;-3.270;2024-02-21T10:35:39;99797.95;;;7.51;100.00
78409;BME280;67697;50.750;-3.270;2024-02-21T10:38:05;99786.80;;;7.73;100.00
78409;BME280;67697;50.750;-3.270;2024-02-21T10:40:30;99786.18;;;7.67;100.00
78409;BME280;67697;50.750;-3.270;2024-02-21T10:42:57;99778.33;;;7.32;100.00
78409;BME280;67697;50.750;-3.270;2024-02-21T10:45:23;99771.81;;;7.63;100.00
78409;BME280;67697;50.750;-3.270;2024-02-21T10:47:51;99759.31;;;7.59;100.00
78409;BME280;67697;50.750;-3.270;2024-02-21T10:50:14;99749.94;;;7.76;100.00
78409;BME280;67697;50.750;-3.270;2024-02-21T10:52:44;99751.75;;;7.53;100.00
78409;BME280;67697;50.750;-3.270;2024-02-21T10:55:09;99744.35;;;7.70;100.00
78409;BME280;67697;50.750;-3.270;2024-02-21T10:57:31;99748.11;;;7.69;100.00
78409;BME280;67697;50.750;-3.270;2024-02-21T10:59:59;99738.18;;;7.99;100.00
78409;BME280;67697;50.750;-3.270;2024-02-21T11:02:21;99733.77;;;7.43;100.00
78409;BME280;67697;50.750;-3.270;2024-02-21T11:04:48;99727.67;;;8.17;100.00
78409;BME280;67697;50.750;-3.270;2024-02-21T11:07:12;99723.65;;;7.51;100.00
78409;BME280;67697;50.750;-3.270;2024-02-21T11:09:38;99718.68;;;7.61;100.00
78409;BME280;67697;50.750;-3.270;2024-02-21T11:12:07;99717.84;;;7.88;100.00
78409;BME280;67697;50.750;-3.270;2024-02-21T11:14:30;99711.38;;;7.88;100.00
78409;BME280;67697;50.750;-3.270;2024-02-21T11:16:55;99708.71;;;7.76;100.00
78409;BME280;67697;50.750;-3.270;2024-02-21T11:19:22;99700.59;;;7.82;100.00
78409;BME280;67697;50.750;-3.270;2024-02-21T11:21:46;99703.23;;;7.93;100.00
78409;BME280;67697;50.750;-3.270;2024-02-21T11:24:12;99695.91;;;8.03;100.00
78409;BME280;67697;50.750;-3.270;2024-02-21T11:26:39;99690.79;;;8.06;100.00
78409;BME280;67697;50.750;-3.270;2024-02-21T11:29:03;99685.25;;;7.94;100.00
78409;BME280;67697;50.750;-3.270;2024-02-21T11:31:39;99679.20;;;7.96;100.00
78409;BME280;67697;50.750;-3.270;2024-02-21T11:33:55;99660.97;;;7.86;100.00
78409;BME280;67697;50.750;-3.270;2024-02-21T11:36:25;99663.57;;;8.19;100.00
78409;BME280;67697;50.750;-3.270;2024-02-21T11:38:46;99661.21;;;8.15;100.00
78409;BME280;67697;50.750;-3.270;2024-02-21T11:41:11;99651.72;;;8.24;100.00
78409;BME280;67697;50.750;-3.270;2024-02-21T11:43:37;99641.74;;;8.34;100.00
78409;BME280;67697;50.750;-3.270;2024-02-21T11:46:03;99651.18;;;8.52;100.00
78409;BME280;67697;50.750;-3.270;2024-02-21T11:48:28;99634.98;;;8.32;100.00
78409;BME280;67697;50.750;-3.270;2024-02-21T11:50:54;99617.05;;;8.76;100.00
78409;BME280;67697;50.750;-3.270;2024-02-21T11:53:20;99619.35;;;8.40;100.00
78409;BME280;67697;50.750;-3.270;2024-02-21T11:55:46;99612.79;;;8.69;100.00
78409;BME280;67697;50.750;-3.270;2024-02-21T11:58:11;99594.78;;;8.53;100.00
78409;BME280;67697;50.750;-3.270;2024-02-21T12:00:37;99595.00;;;8.54;100.00
78409;BME280;67697;50.750;-3.270;2024-02-21T12:03:04;99595.87;;;8.96;100.00
78409;BME280;67697;50.750;-3.270;2024-02-21T12:05:28;99590.41;;;8.58;100.00
78409;BME280;67697;50.750;-3.270;2024-02-21T12:07:53;99590.06;;;9.13;100.00
78409;BME280;67697;50.750;-3.270;2024-02-21T12:10:20;99576.30;;;9.25;100.00
78409;BME280;67697;50.750;-3.270;2024-02-21T12:12:45;99559.74;;;8.99;100.00
78409;BME280;67697;50.750;-3.270;2024-02-21T12:15:11;99560.35;;;9.17;100.00
78409;BME280;67697;50.750;-3.270;2024-02-21T12:17:36;99551.75;;;9.16;100.00
78409;BME280;67697;50.750;-3.270;2024-02-21T12:20:02;99543.45;;;9.33;100.00
78409;BME280;67697;50.750;-3.270;2024-02-21T12:22:27;99532.15;;;9.52;100.00
78409;BME280;67697;50.750;-3.270;2024-02-21T12:24:53;99534.49;;;9.35;100.00
78409;BME280;67697;50.750;-3.270;2024-02-21T12:27:18;99531.73;;;9.56;100.00
78409;BME280;67697;50.750;-3.270;2024-02-21T12:29:44;99527.75;;;9.76;100.00
78409;BME280;67697;50.750;-3.270;2024-02-21T12:32:09;99532.29;;;9.48;100.00
78409;BME280;67697;50.750;-3.270;2024-02-21T12:34:35;99530.56;;;9.45;100.00
78409;BME280;67697;50.750;-3.270;2024-02-21T12:37:01;99522.05;;;9.80;100.00